createdAt,value
2017-09-23T15:44:49.271Z,292
2017-09-23T15:45:29.837Z,284
2017-09-23T15:46:10.414Z,280
2017-09-23T15:46:51.032Z,272
2017-09-23T15:47:31.613Z,264
2017-09-23T15:48:12.307Z,256
2017-09-23T15:48:53.005Z,252
2017-09-23T15:49:33.565Z,244
2017-09-23T15:50:14.135Z,232
2017-09-23T15:50:54.695Z,232
2017-09-23T15:51:35.252Z,224
2017-09-23T15:52:15.810Z,220
2017-09-23T15:52:56.384Z,216
2017-09-23T15:53:36.943Z,208
2017-09-23T15:54:17.514Z,204
2017-09-23T15:54:58.082Z,200
2017-09-23T15:55:38.651Z,196
2017-09-23T15:56:19.222Z,192
2017-09-23T15:56:59.794Z,188
2017-09-23T15:57:40.371Z,188
2017-09-23T15:58:20.930Z,184
2017-09-23T15:59:01.514Z,180
2017-09-23T15:59:42.092Z,176
2017-09-23T16:00:22.686Z,176
2017-09-23T16:01:03.302Z,172
2017-09-23T16:01:43.877Z,168
2017-09-23T16:02:24.444Z,164
2017-09-23T16:03:05.023Z,160
2017-09-23T16:03:45.594Z,156
2017-09-23T16:04:26.160Z,156
2017-09-23T16:05:06.740Z,148
2017-09-23T16:05:47.300Z,148
2017-09-23T16:06:27.873Z,148
2017-09-23T16:07:08.447Z,144
2017-09-23T16:07:49.016Z,140
2017-09-23T16:08:29.615Z,140
2017-09-23T16:09:10.167Z,136
2017-09-23T16:09:50.729Z,136
2017-09-23T16:10:31.295Z,132
2017-09-23T16:11:11.923Z,132
2017-09-23T16:11:52.500Z,128
2017-09-23T16:12:33.114Z,128
2017-09-23T16:13:13.695Z,124
2017-09-23T16:13:54.263Z,120
2017-09-23T16:14:34.963Z,120
2017-09-23T16:15:15.542Z,120
2017-09-23T16:15:56.115Z,120
2017-09-23T16:16:36.683Z,120
2017-09-23T16:17:17.236Z,120
2017-09-23T16:17:57.836Z,116
2017-09-23T16:18:38.410Z,112
2017-09-23T16:19:18.967Z,112
2017-09-23T16:19:59.536Z,112
2017-09-23T16:20:40.118Z,112
2017-09-23T16:21:20.675Z,112
2017-09-23T16:22:01.281Z,112
2017-09-23T16:22:41.837Z,112
2017-09-23T16:23:22.409Z,108
2017-09-23T16:24:03.036Z,104
2017-09-23T16:24:43.633Z,104
2017-09-23T16:25:24.185Z,100
2017-09-23T16:26:04.779Z,100
2017-09-23T16:26:45.351Z,96
2017-09-23T16:27:25.928Z,96
2017-09-23T16:28:06.497Z,92
2017-09-23T16:28:47.075Z,92
2017-09-23T16:29:27.659Z,88
2017-09-23T16:30:08.238Z,84
2017-09-23T16:30:48.794Z,84
2017-09-23T16:31:29.359Z,76
2017-09-23T16:32:09.934Z,76
2017-09-23T16:32:50.490Z,72
2017-09-23T16:33:31.054Z,68
2017-09-23T16:34:11.620Z,64
2017-09-23T16:34:52.200Z,60
2017-09-23T16:35:32.752Z,56
2017-09-23T16:36:13.331Z,56
2017-09-23T16:36:53.893Z,52
2017-09-23T16:37:34.444Z,52
2017-09-23T16:38:15.005Z,48
2017-09-23T16:38:55.564Z,48
2017-09-23T16:39:36.122Z,44
2017-09-23T16:40:16.709Z,40
2017-09-23T16:40:57.290Z,40
2017-09-23T16:41:37.847Z,40
2017-09-23T16:42:18.414Z,36
2017-09-23T16:42:58.984Z,36
2017-09-23T16:43:39.560Z,36
2017-09-23T16:44:20.154Z,32
2017-09-23T16:45:00.725Z,32
2017-09-23T16:45:41.276Z,28
2017-09-23T16:46:21.835Z,28
2017-09-23T16:47:02.400Z,24
2017-09-23T16:47:42.972Z,24
2017-09-23T16:48:23.561Z,24
2017-09-23T16:49:04.138Z,24
2017-09-23T16:49:44.687Z,24
2017-09-23T16:50:25.243Z,20
2017-09-23T16:51:05.805Z,20
2017-09-23T16:51:46.372Z,20
2017-09-23T16:52:26.929Z,16
2017-09-23T16:53:07.508Z,20
2017-09-23T16:53:48.063Z,16
2017-09-23T16:54:28.625Z,16
2017-09-23T16:55:09.189Z,16
2017-09-23T16:55:49.751Z,16
2017-09-23T16:56:30.323Z,16
2017-09-23T16:57:10.898Z,12
2017-09-23T16:57:51.454Z,16
2017-09-23T16:58:32.030Z,16
2017-09-23T16:59:12.596Z,16
2017-09-23T16:59:53.156Z,12
2017-09-23T17:00:33.718Z,8
2017-09-23T17:01:14.278Z,12
2017-09-23T17:01:54.849Z,8
2017-09-23T17:02:35.402Z,8
2017-09-23T17:03:15.976Z,8
2017-09-23T17:03:56.534Z,8
2017-09-23T17:04:37.092Z,8
2017-09-23T17:05:17.664Z,8
2017-09-23T17:05:58.224Z,4
2017-09-23T17:06:38.791Z,8
2017-09-23T17:07:19.346Z,8
2017-09-23T17:07:59.947Z,4
2017-09-23T17:08:40.506Z,4
2017-09-23T17:09:21.070Z,4
2017-09-23T17:10:01.627Z,8
2017-09-23T17:10:42.223Z,4
2017-09-23T17:11:22.760Z,4
2017-09-23T17:12:03.317Z,4
2017-09-23T17:12:43.898Z,4
2017-09-23T17:13:24.483Z,0
2017-09-23T17:14:05.065Z,0
2017-09-23T17:14:45.623Z,4
2017-09-23T17:15:26.225Z,4
2017-09-23T17:16:06.791Z,4
2017-09-23T17:16:47.387Z,4
2017-09-23T17:17:27.956Z,4
2017-09-23T17:18:08.525Z,0
2017-09-23T17:18:49.081Z,0
2017-09-23T17:19:29.653Z,0
2017-09-23T17:20:10.240Z,0
2017-09-23T17:20:50.808Z,0
2017-09-23T17:21:31.444Z,0
2017-09-23T17:22:12.052Z,0
2017-09-23T17:22:52.623Z,0
2017-09-23T17:23:33.192Z,0
2017-09-23T17:24:13.765Z,0
2017-09-23T17:24:54.341Z,0
2017-09-23T17:25:34.924Z,0
2017-09-23T17:26:15.484Z,0
2017-09-23T17:26:56.034Z,0
2017-09-23T17:27:36.601Z,0
2017-09-23T17:28:17.176Z,0
2017-09-23T17:28:57.743Z,0
2017-09-23T17:29:38.309Z,0
2017-09-23T17:30:18.885Z,0
2017-09-23T17:30:59.445Z,0
2017-09-23T17:31:40.001Z,0
2017-09-23T17:32:20.581Z,0
2017-09-23T17:33:01.164Z,0
2017-09-23T17:33:41.722Z,0
2017-09-23T17:34:22.274Z,0
2017-09-23T17:35:02.875Z,0
2017-09-23T17:35:44.966Z,0
2017-09-23T17:36:25.532Z,0
2017-09-23T17:37:06.089Z,0
2017-09-23T17:37:46.651Z,0
2017-09-23T17:38:27.232Z,0
2017-09-23T17:39:07.792Z,0
2017-09-23T17:39:48.358Z,0
2017-09-23T17:40:28.918Z,0
2017-09-23T17:41:09.486Z,0
2017-09-23T17:41:50.046Z,0
2017-09-23T17:42:30.610Z,0
2017-09-23T17:43:11.183Z,0
2017-09-23T17:43:51.747Z,0
2017-09-23T17:44:32.307Z,0
2017-09-23T17:45:12.868Z,0
2017-09-23T17:45:53.443Z,0
2017-09-23T17:46:34.011Z,0
2017-09-23T17:47:14.578Z,0
2017-09-23T17:47:55.163Z,0
2017-09-23T17:48:35.737Z,0
2017-09-23T17:49:17.087Z,0
2017-09-23T17:49:57.654Z,0
2017-09-23T17:50:38.228Z,0
2017-09-23T17:51:18.791Z,0
2017-09-23T17:51:59.453Z,0
2017-09-23T17:52:40.033Z,0
2017-09-23T17:53:20.648Z,0
2017-09-23T17:54:01.214Z,0
2017-09-23T17:54:41.784Z,0
2017-09-23T17:55:22.350Z,0
2017-09-23T17:56:02.910Z,0
2017-09-23T17:56:43.458Z,0
2017-09-23T17:57:24.047Z,0
2017-09-23T17:58:04.603Z,0
2017-09-23T17:58:45.187Z,0
2017-09-23T17:59:25.745Z,0
2017-09-23T18:00:06.306Z,0
2017-09-23T18:00:46.890Z,0
2017-09-23T18:01:27.439Z,0
2017-09-23T18:02:08.002Z,0
2017-09-23T18:02:48.580Z,0
2017-09-23T18:03:29.148Z,0
2017-09-23T18:04:09.702Z,0
2017-09-23T18:04:50.276Z,0
2017-09-23T18:05:30.831Z,0
2017-09-23T18:06:11.384Z,0
2017-09-23T18:06:51.944Z,0
2017-09-23T18:07:32.500Z,0
2017-09-23T18:08:13.088Z,0
2017-09-23T18:08:53.652Z,0
2017-09-23T18:09:34.253Z,0
2017-09-23T18:10:14.802Z,0
2017-09-23T18:10:55.363Z,0
2017-09-23T18:11:35.928Z,0
2017-09-23T18:12:16.497Z,0
2017-09-23T18:12:57.081Z,0
2017-09-23T18:13:37.647Z,0
2017-09-23T18:14:18.231Z,0
2017-09-23T18:14:58.800Z,0
2017-09-23T18:15:39.397Z,0
2017-09-23T18:16:19.964Z,0
2017-09-23T18:17:00.539Z,0
2017-09-23T18:17:41.118Z,0
2017-09-23T18:18:21.671Z,0
2017-09-23T18:19:02.236Z,0
2017-09-23T18:19:42.799Z,0
2017-09-23T18:20:23.358Z,0
2017-09-23T18:21:03.922Z,0
2017-09-23T18:21:44.486Z,0
2017-09-23T18:22:25.050Z,0
2017-09-23T18:23:05.612Z,0
2017-09-23T18:23:46.168Z,0
2017-09-23T18:24:26.728Z,0
2017-09-23T18:25:07.280Z,0
2017-09-23T18:25:47.851Z,0
2017-09-23T18:26:28.426Z,0
2017-09-23T18:27:08.999Z,0
2017-09-23T18:27:49.565Z,0
2017-09-23T18:28:30.125Z,0
2017-09-23T18:29:10.680Z,0
2017-09-23T18:29:51.250Z,0
2017-09-23T18:30:31.801Z,0
2017-09-23T18:31:12.370Z,0
2017-09-23T18:31:52.930Z,0
2017-09-23T18:32:33.495Z,0
2017-09-23T18:33:14.052Z,0
2017-09-23T18:33:54.792Z,0
2017-09-23T18:34:35.353Z,0
2017-09-23T18:35:15.918Z,0
2017-09-23T18:35:56.473Z,0
2017-09-23T18:36:37.034Z,0
2017-09-23T18:37:17.620Z,0
2017-09-23T18:37:58.195Z,0
2017-09-23T18:38:38.761Z,0
2017-09-23T18:39:19.336Z,0
2017-09-23T18:39:59.904Z,0
2017-09-23T18:40:40.459Z,0
2017-09-23T18:41:21.030Z,0
2017-09-23T18:42:01.596Z,0
2017-09-23T18:42:42.173Z,0
2017-09-23T18:43:22.726Z,0
2017-09-23T18:44:03.289Z,0
2017-09-23T18:44:43.850Z,0
2017-09-23T18:45:24.433Z,0
2017-09-23T18:46:05.009Z,0
2017-09-23T18:46:45.581Z,0
2017-09-23T18:47:26.143Z,0
2017-09-23T18:48:06.720Z,0
2017-09-23T18:48:47.268Z,0
2017-09-23T18:49:27.838Z,0
2017-09-23T18:50:08.394Z,0
2017-09-23T18:50:48.962Z,0
2017-09-23T18:51:29.528Z,0
2017-09-23T18:52:10.080Z,0
2017-09-23T18:52:50.644Z,0
2017-09-23T18:53:31.214Z,0
2017-09-23T18:54:11.772Z,0
2017-09-23T18:54:52.344Z,0
2017-09-23T18:55:32.916Z,0
2017-09-23T18:56:13.469Z,0
2017-09-23T18:56:54.029Z,0
2017-09-23T18:57:34.584Z,0
2017-09-23T18:58:15.147Z,0
2017-09-23T18:58:55.707Z,0
2017-09-23T18:59:36.268Z,0
2017-09-23T19:00:16.842Z,0
2017-09-23T19:00:57.426Z,0
2017-09-23T19:01:37.997Z,0
2017-09-23T19:02:18.557Z,0
2017-09-23T19:02:59.146Z,0
2017-09-23T19:03:39.725Z,0
2017-09-23T19:04:20.303Z,0
2017-09-23T19:05:00.889Z,0
2017-09-23T19:05:41.450Z,0
2017-09-23T19:06:22.048Z,0
2017-09-23T19:07:02.618Z,0
2017-09-23T19:07:43.180Z,0
2017-09-23T19:08:23.945Z,0
2017-09-23T19:09:04.511Z,0
2017-09-23T19:09:45.083Z,0
2017-09-23T19:10:25.683Z,0
2017-09-23T19:11:06.241Z,0
2017-09-23T19:11:46.838Z,0
2017-09-23T19:12:27.397Z,0
2017-09-23T19:13:07.955Z,0
2017-09-23T19:13:48.529Z,0
2017-09-23T19:14:29.081Z,0
2017-09-23T19:15:09.638Z,0
2017-09-23T19:15:50.198Z,0
2017-09-23T19:16:30.762Z,0
2017-09-23T19:17:11.320Z,0
2017-09-23T19:17:51.883Z,0
2017-09-23T19:18:32.437Z,0
2017-09-23T19:19:13.014Z,0
2017-09-23T19:19:53.577Z,0
2017-09-23T19:20:34.140Z,0
2017-09-23T19:21:14.722Z,0
2017-09-23T19:21:55.290Z,0
2017-09-23T19:22:35.878Z,0
2017-09-23T19:23:16.496Z,0
2017-09-23T19:23:57.048Z,0
2017-09-23T19:24:37.606Z,0
2017-09-23T19:25:18.167Z,0
2017-09-23T19:25:58.780Z,0
2017-09-23T19:26:39.304Z,0
2017-09-23T19:27:19.868Z,0
2017-09-23T19:28:00.440Z,0
2017-09-23T19:28:41.006Z,0
2017-09-23T19:29:21.575Z,0
2017-09-23T19:30:02.169Z,0
2017-09-23T19:30:42.829Z,0
2017-09-23T19:31:23.390Z,0
2017-09-23T19:32:03.959Z,0
2017-09-23T19:32:44.517Z,0
2017-09-23T19:33:25.078Z,0
2017-09-23T19:34:05.671Z,0
2017-09-23T19:34:46.225Z,0
2017-09-23T19:35:26.797Z,0
2017-09-23T19:36:07.369Z,0
2017-09-23T19:36:47.918Z,0
2017-09-23T19:37:28.507Z,0
2017-09-23T19:38:09.054Z,0
2017-09-23T19:38:49.638Z,0
2017-09-23T19:39:30.235Z,0
2017-09-23T19:40:10.774Z,0
2017-09-23T19:40:51.352Z,0
2017-09-23T19:41:31.947Z,0
2017-09-23T19:42:12.520Z,0
2017-09-23T19:42:53.085Z,0
2017-09-23T19:43:33.660Z,0
2017-09-23T19:44:14.214Z,0
2017-09-23T19:44:54.823Z,0
2017-09-23T19:45:35.390Z,0
2017-09-23T19:46:15.954Z,0
2017-09-23T19:46:56.520Z,0
2017-09-23T19:47:37.080Z,0
2017-09-23T19:48:17.648Z,0
2017-09-23T19:48:58.212Z,0
2017-09-23T19:49:38.770Z,0
2017-09-23T19:50:19.336Z,0
2017-09-23T19:50:59.909Z,0
2017-09-23T19:51:40.469Z,0
2017-09-23T19:52:21.034Z,0
2017-09-23T19:53:01.605Z,0
2017-09-23T19:53:42.219Z,0
2017-09-23T19:54:22.773Z,0
2017-09-23T19:55:03.343Z,0
2017-09-23T19:55:43.905Z,0
2017-09-23T19:56:24.477Z,0
2017-09-23T19:57:05.050Z,0
2017-09-23T19:57:45.607Z,0
2017-09-23T19:58:26.173Z,0
2017-09-23T19:59:06.731Z,0
2017-09-23T19:59:47.280Z,0
2017-09-23T20:00:27.860Z,0
2017-09-23T20:01:08.440Z,0
2017-09-23T20:01:48.998Z,0
2017-09-23T20:02:29.573Z,0
2017-09-23T20:03:10.147Z,0
2017-09-23T20:03:50.717Z,0
2017-09-23T20:04:31.292Z,0
2017-09-23T20:05:11.847Z,0
2017-09-23T20:05:52.433Z,0
2017-09-23T20:06:33.015Z,0
2017-09-23T20:07:13.581Z,0
2017-09-23T20:07:54.146Z,0
2017-09-23T20:08:34.719Z,0
2017-09-23T20:09:15.291Z,0
2017-09-23T20:09:55.862Z,0
2017-09-23T20:10:36.433Z,0
2017-09-23T20:11:17.003Z,0
2017-09-23T20:11:57.568Z,0
2017-09-23T20:12:38.153Z,0
2017-09-23T20:13:18.719Z,0
2017-09-23T20:13:59.262Z,0
2017-09-23T20:14:39.833Z,0
2017-09-23T20:15:20.406Z,0
2017-09-23T20:16:00.973Z,0
2017-09-23T20:16:41.528Z,0
2017-09-23T20:17:22.105Z,0
2017-09-23T20:18:09.366Z,0
2017-09-23T20:18:49.930Z,0
2017-09-23T20:19:30.488Z,0
2017-09-23T20:20:11.047Z,0
2017-09-23T20:20:51.607Z,0
2017-09-23T20:21:32.169Z,0
2017-09-23T20:22:12.729Z,0
2017-09-23T20:22:53.301Z,0
2017-09-23T20:23:33.885Z,0
2017-09-23T20:24:14.471Z,0
2017-09-23T20:24:55.035Z,0
2017-09-23T20:25:35.595Z,0
2017-09-23T20:26:16.160Z,0
2017-09-23T20:26:56.717Z,0
2017-09-23T20:27:37.287Z,0
2017-09-23T20:28:17.853Z,0
2017-09-23T20:28:58.428Z,0
2017-09-23T20:29:38.988Z,0
2017-09-23T20:30:19.544Z,0
2017-09-23T20:31:00.110Z,0
2017-09-23T20:31:40.683Z,0
2017-09-23T20:32:21.242Z,0
2017-09-23T20:33:01.841Z,0
2017-09-23T20:33:42.391Z,0
2017-09-23T20:34:22.955Z,0
2017-09-23T20:35:03.521Z,0
2017-09-23T20:35:44.558Z,0
2017-09-23T20:36:25.114Z,0
2017-09-23T20:37:05.677Z,0
2017-09-23T20:37:46.247Z,0
2017-09-23T20:38:26.810Z,0
2017-09-23T20:39:07.376Z,0
2017-09-23T20:39:47.936Z,0
2017-09-23T20:40:28.484Z,0
2017-09-23T20:41:09.057Z,0
2017-09-23T20:41:49.673Z,0
2017-09-23T20:42:30.247Z,0
2017-09-23T20:43:10.815Z,0
2017-09-23T20:43:51.381Z,0
2017-09-23T20:44:31.946Z,0
2017-09-23T20:45:12.516Z,0
2017-09-23T20:45:53.094Z,0
2017-09-23T20:46:33.659Z,0
2017-09-23T20:47:14.226Z,0
2017-09-23T20:47:54.786Z,0
2017-09-23T20:48:35.358Z,0
2017-09-23T20:49:15.910Z,0
2017-09-23T20:49:56.481Z,0
2017-09-23T20:50:37.051Z,0
2017-09-23T20:51:17.629Z,0
2017-09-23T20:51:58.196Z,0
2017-09-23T20:52:38.759Z,0
2017-09-23T20:53:19.320Z,0
2017-09-23T20:53:59.881Z,0
2017-09-23T20:54:40.452Z,0
2017-09-23T20:55:21.012Z,0
2017-09-23T20:56:01.582Z,0
2017-09-23T20:56:42.152Z,0
2017-09-23T20:57:22.723Z,0
2017-09-23T20:58:03.287Z,0
2017-09-23T20:58:43.846Z,0
2017-09-23T20:59:24.413Z,0
2017-09-23T21:00:04.970Z,0
2017-09-23T21:00:45.542Z,0
2017-09-23T21:01:26.103Z,0
2017-09-23T21:02:06.662Z,0
2017-09-23T21:02:47.242Z,0
2017-09-23T21:03:27.814Z,0
2017-09-23T21:04:08.386Z,0
2017-09-23T21:04:48.950Z,0
2017-09-23T21:05:29.512Z,0
2017-09-23T21:06:10.064Z,0
2017-09-23T21:06:50.617Z,0
2017-09-23T21:07:31.190Z,0
2017-09-23T21:08:11.754Z,0
2017-09-23T21:08:52.314Z,0
2017-09-23T21:09:32.886Z,0
2017-09-23T21:10:13.448Z,0
2017-09-23T21:10:54.043Z,0
2017-09-23T21:11:34.603Z,0
2017-09-23T21:12:15.176Z,0
2017-09-23T21:12:55.772Z,0
2017-09-23T21:13:36.376Z,0
2017-09-23T21:14:16.929Z,0
2017-09-23T21:14:57.501Z,0
2017-09-23T21:15:38.068Z,0
2017-09-23T21:16:18.637Z,0
2017-09-23T21:16:59.197Z,0
2017-09-23T21:17:39.767Z,0
2017-09-23T21:18:20.334Z,0
2017-09-23T21:19:00.930Z,0
2017-09-23T21:19:41.497Z,0
2017-09-23T21:20:22.075Z,0
2017-09-23T21:21:02.652Z,0
2017-09-23T21:21:43.222Z,0
2017-09-23T21:22:23.795Z,0
2017-09-23T21:23:04.349Z,0
2017-09-23T21:23:44.909Z,0
2017-09-23T21:24:25.482Z,0
2017-09-23T21:25:06.043Z,0
2017-09-23T21:25:46.614Z,0
2017-09-23T21:26:27.182Z,0
2017-09-23T21:27:07.745Z,0
2017-09-23T21:27:48.313Z,0
2017-09-23T21:28:28.863Z,0
2017-09-23T21:29:09.438Z,0
2017-09-23T21:29:49.996Z,0
2017-09-23T21:30:30.554Z,0
2017-09-23T21:31:11.116Z,0
2017-09-23T21:31:51.685Z,0
2017-09-23T21:32:32.256Z,0
2017-09-23T21:33:12.818Z,0
2017-09-23T21:33:53.384Z,0
2017-09-23T21:34:33.954Z,0
2017-09-23T21:35:14.541Z,0
2017-09-23T21:35:55.129Z,0
2017-09-23T21:36:35.694Z,0
2017-09-23T21:37:16.282Z,0
2017-09-23T21:37:56.854Z,0
2017-09-23T21:38:37.448Z,0
2017-09-23T21:39:18.020Z,0
2017-09-23T21:39:58.586Z,0
2017-09-23T21:40:39.169Z,0
2017-09-23T21:41:19.772Z,0
2017-09-23T21:42:00.366Z,0
2017-09-23T21:42:40.935Z,0
2017-09-23T21:43:21.518Z,0
2017-09-23T21:44:02.067Z,0
2017-09-23T21:44:42.632Z,0
2017-09-23T21:45:23.243Z,0
2017-09-23T21:46:03.824Z,0
2017-09-23T21:46:44.394Z,0
2017-09-23T21:47:24.964Z,0
2017-09-23T21:48:05.520Z,0
2017-09-23T21:48:46.078Z,0
2017-09-23T21:49:26.640Z,0
2017-09-23T21:50:07.210Z,0
2017-09-23T21:50:47.781Z,0
2017-09-23T21:51:28.340Z,0
2017-09-23T21:52:08.896Z,0
2017-09-23T21:52:49.474Z,0
2017-09-23T21:53:30.022Z,0
2017-09-23T21:54:10.587Z,0
2017-09-23T21:54:51.174Z,0
2017-09-23T21:55:31.700Z,0
2017-09-23T21:56:12.299Z,0
2017-09-23T21:56:52.896Z,0
2017-09-23T21:57:33.458Z,0
2017-09-23T21:58:14.062Z,0
2017-09-23T21:58:54.628Z,0
2017-09-23T21:59:35.196Z,0
2017-09-23T22:00:15.757Z,0
2017-09-23T22:00:56.333Z,0
2017-09-23T22:01:36.903Z,0
2017-09-23T22:02:17.463Z,0
2017-09-23T22:02:58.023Z,0
2017-09-23T22:03:38.604Z,0
2017-09-23T22:04:19.193Z,0
2017-09-23T22:04:59.756Z,0
2017-09-23T22:05:40.344Z,0
2017-09-23T22:06:20.888Z,0
2017-09-23T22:07:01.520Z,0
2017-09-23T22:07:42.074Z,0
2017-09-23T22:08:22.663Z,0
2017-09-23T22:09:03.241Z,0
2017-09-23T22:09:43.821Z,0
2017-09-23T22:10:24.415Z,0
2017-09-23T22:11:04.972Z,0
2017-09-23T22:11:45.573Z,0
2017-09-23T22:12:26.171Z,0
2017-09-23T22:13:06.719Z,0
2017-09-23T22:13:47.337Z,0
2017-09-23T22:14:27.913Z,0
2017-09-23T22:15:08.529Z,0
2017-09-23T22:15:49.102Z,0
2017-09-23T22:16:29.669Z,0
2017-09-23T22:17:10.266Z,0
2017-09-23T22:17:50.857Z,0
2017-09-23T22:18:31.422Z,0
2017-09-23T22:19:11.974Z,0
2017-09-23T22:19:52.529Z,0
2017-09-23T22:20:33.094Z,0
2017-09-23T22:21:13.672Z,0
2017-09-23T22:21:54.227Z,0
2017-09-23T22:22:34.820Z,0
2017-09-23T22:23:15.380Z,0
2017-09-23T22:23:55.950Z,0
2017-09-23T22:24:36.519Z,0
2017-09-23T22:25:17.097Z,0
2017-09-23T22:25:57.686Z,0
2017-09-23T22:26:38.250Z,0
2017-09-23T22:27:18.842Z,0
2017-09-23T22:27:59.408Z,0
2017-09-23T22:28:39.998Z,0
2017-09-23T22:29:20.546Z,0
2017-09-23T22:30:01.138Z,0
2017-09-23T22:30:41.713Z,0
2017-09-23T22:31:22.283Z,0
2017-09-23T22:32:02.909Z,0
2017-09-23T22:32:43.490Z,0
2017-09-23T22:33:24.090Z,0
2017-09-23T22:34:04.674Z,0
2017-09-23T22:34:45.251Z,0
2017-09-23T22:35:25.812Z,0
2017-09-23T22:36:06.371Z,0
2017-09-23T22:36:46.933Z,0
2017-09-23T22:37:27.541Z,0
2017-09-23T22:38:08.109Z,0
2017-09-23T22:38:48.679Z,0
2017-09-23T22:39:29.250Z,0
2017-09-23T22:40:09.812Z,0
2017-09-23T22:40:50.370Z,0
2017-09-23T22:41:30.939Z,0
2017-09-23T22:42:11.511Z,0
2017-09-23T22:42:52.057Z,0
2017-09-23T22:43:32.617Z,0
2017-09-23T22:44:13.183Z,0
2017-09-23T22:44:53.744Z,0
2017-09-23T22:45:34.303Z,0
2017-09-23T22:46:14.865Z,0
2017-09-23T22:46:55.427Z,0
2017-09-23T22:47:35.993Z,0
2017-09-23T22:48:16.548Z,0
2017-09-23T22:48:57.161Z,0
2017-09-23T22:49:37.719Z,0
2017-09-23T22:50:18.285Z,0
2017-09-23T22:50:58.847Z,0
2017-09-23T22:51:39.407Z,0
2017-09-23T22:52:19.964Z,0
2017-09-23T22:53:00.537Z,0
2017-09-23T22:53:41.091Z,0
2017-09-23T22:54:21.654Z,0
2017-09-23T22:55:02.222Z,0
2017-09-23T22:55:42.781Z,0
2017-09-23T22:56:23.351Z,0
2017-09-23T22:57:03.934Z,0
2017-09-23T22:57:44.496Z,0
2017-09-23T22:58:25.082Z,0
2017-09-23T22:59:05.657Z,0
2017-09-23T22:59:46.213Z,0
2017-09-23T23:00:26.771Z,0
2017-09-23T23:01:07.351Z,0
2017-09-23T23:01:47.911Z,0
2017-09-23T23:02:28.488Z,0
2017-09-23T23:03:09.042Z,0
2017-09-23T23:03:49.624Z,0
2017-09-23T23:04:30.183Z,0
2017-09-23T23:05:10.749Z,0
2017-09-23T23:05:51.329Z,0
2017-09-23T23:06:31.906Z,0
2017-09-23T23:07:12.448Z,0
2017-09-23T23:07:53.020Z,0
2017-09-23T23:08:33.574Z,0
2017-09-23T23:09:14.139Z,0
2017-09-23T23:09:54.726Z,0
2017-09-23T23:10:35.283Z,0
2017-09-23T23:11:15.835Z,0
2017-09-23T23:11:56.398Z,0
2017-09-23T23:12:36.983Z,0
2017-09-23T23:13:17.541Z,0
2017-09-23T23:13:58.114Z,0
2017-09-23T23:14:38.693Z,0
2017-09-23T23:15:19.238Z,0
2017-09-23T23:15:59.804Z,0
2017-09-23T23:16:40.358Z,0
2017-09-23T23:17:20.938Z,0
2017-09-23T23:18:01.542Z,0
2017-09-23T23:18:42.099Z,0
2017-09-23T23:19:22.662Z,0
2017-09-23T23:20:03.224Z,0
2017-09-23T23:20:43.786Z,0
2017-09-23T23:21:24.413Z,0
2017-09-23T23:22:04.971Z,0
2017-09-23T23:22:45.534Z,0
2017-09-23T23:23:26.105Z,0
2017-09-23T23:24:06.708Z,0
2017-09-23T23:24:47.278Z,0
2017-09-23T23:25:27.845Z,0
2017-09-23T23:26:08.416Z,0
2017-09-23T23:26:48.991Z,0
2017-09-23T23:27:29.562Z,0
2017-09-23T23:28:10.124Z,0
2017-09-23T23:28:50.738Z,0
2017-09-23T23:29:31.332Z,0
2017-09-23T23:30:11.886Z,0
2017-09-23T23:30:52.443Z,0
2017-09-23T23:31:33.018Z,0
2017-09-23T23:32:13.618Z,0
2017-09-23T23:32:54.171Z,0
2017-09-23T23:33:34.766Z,0
2017-09-23T23:34:15.333Z,0
2017-09-23T23:34:55.916Z,0
2017-09-23T23:35:36.478Z,0
2017-09-23T23:36:17.050Z,0
2017-09-23T23:36:57.637Z,0
2017-09-23T23:37:38.199Z,0
2017-09-23T23:38:18.774Z,0
2017-09-23T23:38:59.344Z,0
2017-09-23T23:39:39.902Z,0
2017-09-23T23:40:20.475Z,0
2017-09-23T23:41:01.045Z,0
2017-09-23T23:41:41.642Z,0
2017-09-23T23:42:22.206Z,0
2017-09-23T23:43:02.757Z,0
2017-09-23T23:43:43.340Z,0
2017-09-23T23:44:23.904Z,0
2017-09-23T23:45:04.542Z,0
2017-09-23T23:45:45.094Z,0
2017-09-23T23:46:25.708Z,0
2017-09-23T23:47:06.273Z,0
2017-09-23T23:47:46.846Z,0
2017-09-23T23:48:27.405Z,0
2017-09-23T23:49:07.988Z,0
2017-09-23T23:49:48.529Z,0
2017-09-23T23:50:29.075Z,0
2017-09-23T23:51:09.648Z,0
2017-09-23T23:51:50.221Z,0
2017-09-23T23:52:30.783Z,0
2017-09-23T23:53:11.387Z,0
2017-09-23T23:53:51.985Z,0
2017-09-23T23:54:32.564Z,0
2017-09-23T23:55:13.134Z,0
2017-09-23T23:55:53.690Z,0
2017-09-23T23:56:34.279Z,0
2017-09-23T23:57:14.849Z,0
2017-09-23T23:57:55.403Z,0
2017-09-23T23:58:35.959Z,0
2017-09-23T23:59:16.528Z,0
2017-09-23T23:59:57.124Z,0
